Mandaree, ND (58757)

7:44 PM CDT on August 29, 2015 (GMT -0500)
Stanley | | Change Station
CLOSE
Current Station
Airport
Location: Stanley,
Elevation: 2244 ft
Nearby Weather Stations
Active Advisory: Fire Weather Warning

Elev 2244 ft 48.30 °N, 102.41 °W | Updated 9 minutes ago

Clear
Clear
84 °F
Feels Like 85 °F
N
4
Wind Variable Wind from SE

Today
High -- | Low -- °F
--% Chance of Precip.
Yesterday
High -- | Low -- °F
Precip. -- in
7:04 AM 8:37 PM
Full, 100% visible
Pressure 29.81 in
Visibility 10.0 miles
Clouds Clear
Heat Index 85 °F
Dew Point 63 °F
Humidity 48%
Rainfall 0.00 in
Snow Depth Not available.
UV 0 out of 12
Pollen 10.20 out of 12
Air Quality Not available.
Flu Activity Not available.
METAR K08D 300035Z AUTO 13003KT 10SM CLR 29/17 A2981 RMK AO2
Pressure 29.81 in
Visibility 10.0 miles
Clouds Clear
Heat Index 85 °F
Dew Point 63 °F
Humidity 48%
Rainfall 0.00 in
Snow Depth Not available.
UV 0 out of 12
Pollen 10.20 out of 12
Air Quality Not available.
Flu Activity Not available.
METAR K08D 300035Z AUTO 13003KT 10SM CLR 29/17 A2981 RMK AO2

10-Day Weather Forecast

×

Almanac

Astronomy

Aug. 29, 2015 Rise Set
Actual Time
Civil Twilight
Nautical Twilight
Astronomical Twilight
Moon
Length of Visible Light
Length of Day
Tomorrow will be .
, % of the Moon is Illuminated

Today's Extremes

State Highs State Lows

Community

WunderPhotos

Upload Photos

1,850,813 photos uploaded!

WunderBlogs® & News

Nearby

Air Quality

  Air Quality AQ Index Pollutant
Not available.

Snow Depth

Station Depth Elevation

Earthquake Activity

City Distance Mag. Time & Date
Minimum magnitude displayed is 2.5.

Coastal Water Temperatures

Place Temperature

Stations

Nearby Weather Stations

Station Location Temp. Windchill Dew Point Humidity Wind Precip. Elev Updated Type
                   
Fire Weather Warning
Statement as of 5:01 PM MDT on August 29, 2015

... Red flag warning remains in effect until 9 PM CDT /8 PM MDT/
this evening for temperatures in the upper 90s... low relative
humidity... and sufficient wind speeds for fire weather zones
017... 031... 032... 040 and 043...

* affected area... fire weather zones 017... 031... 032... 040 and
043.

* Wind... south wind 10 to 20 mph.

* Timing... through this evening.

* Humidity... 10 to 15 percent.

* Temperatures... 95 to 100.

* Impacts... any fires that develop would likely spread rapidly.

Precautionary/preparedness actions...

A red flag warning means that critical fire weather conditions
are either occurring now... or will shortly. A combination of
strong winds... low relative humidity... and warm temperatures will
create the potential for rapid spread of any fire that ignites.



Ayd